.
WxDataArchive / Data Records for 2008-12-13
2008-12-12 December 2008 2008-12-14

Data Records for Saturday, 13 December 2008

Time	Temp	Chill	HIndex	Humid	Dewpt	 Wind 	HiWind	WindDir	Rain 	Barom 
-----	----	-----	------	-----	-----	------	------	-------	-----	----- 
00:00	14.6	14.6	14.6	73	7.5	0	0	---	0.00	30.213 
00:05	14.4	14.4	14.4	73	7.4	0	0	---	0.00	30.213 
00:10	14.4	14.4	14.4	74	7.7	0	1	248	0.00	30.213 
00:15	14.4	14.4	14.4	75	8.0	0	2	248	0.00	30.214 
00:20	14.6	14.6	14.6	75	8.1	0	2	248	0.00	30.214 
00:25	14.6	14.6	14.6	75	8.1	0	2	248	0.00	30.214 
00:30	14.8	14.8	14.8	75	8.3	0	2	248	0.00	30.218 
00:35	14.9	14.9	14.9	75	8.4	0	2	248	0.00	30.218 
00:40	15.1	15.1	15.1	75	8.6	0	3	248	0.00	30.218 
00:45	15.2	15.2	15.2	75	8.7	0	3	248	0.00	30.219 
00:50	15.2	15.2	15.2	75	8.7	0	2	248	0.00	30.219 
00:55	15.2	15.2	15.2	75	8.7	1	3	248	0.00	30.219 
01:00	15.4	15.4	15.4	75	8.9	1	3	248	0.00	30.219 
01:05	15.4	15.4	15.4	75	8.9	1	3	248	0.00	30.219 
01:10	15.6	15.6	15.6	75	9.1	1	4	248	0.00	30.219 
01:15	15.6	15.6	15.6	75	9.1	0	3	248	0.00	30.217 
01:20	15.6	15.6	15.6	75	9.1	1	4	248	0.00	30.217 
01:25	15.7	15.7	15.7	75	9.2	1	3	248	0.00	30.217 
01:30	15.7	15.7	15.7	75	9.2	1	2	225	0.00	30.212 
01:35	15.7	15.7	15.7	75	9.2	0	2	248	0.00	30.212 
01:40	15.7	15.7	15.7	75	9.2	0	2	248	0.00	30.212 
01:45	15.7	15.7	15.7	75	9.2	0	2	248	0.00	30.215 
01:50	15.7	15.7	15.7	75	9.2	0	2	248	0.00	30.215 
01:55	15.7	15.7	15.7	75	9.2	0	2	248	0.00	30.215 
02:00	15.9	15.9	15.9	75	9.4	0	3	248	0.00	30.207 
02:05	15.9	15.9	15.9	75	9.4	0	3	225	0.00	30.207 
02:10	15.9	15.9	15.9	75	9.4	0	2	225	0.00	30.207 
02:15	15.9	15.9	15.9	75	9.4	0	3	225	0.00	30.213 
02:20	15.9	15.9	15.9	75	9.4	0	2	248	0.00	30.213 
02:25	15.7	15.7	15.7	75	9.2	0	2	248	0.00	30.213 
02:30	15.7	15.7	15.7	76	9.5	0	2	248	0.00	30.205 
02:35	15.6	15.6	15.6	76	9.4	0	4	248	0.00	30.205 
02:40	15.6	15.6	15.6	76	9.4	0	2	225	0.00	30.205 
02:45	15.6	15.6	15.6	76	9.4	0	3	248	0.00	30.203 
02:50	15.6	15.6	15.6	76	9.4	0	1	248	0.00	30.203 
02:55	15.6	15.6	15.6	77	9.7	0	2	248	0.00	30.203 
03:00	15.4	15.4	15.4	77	9.5	0	3	248	0.00	30.202 
03:05	15.4	15.4	15.4	77	9.5	0	2	248	0.00	30.202 
03:10	15.4	15.4	15.4	77	9.5	0	1	248	0.00	30.202 
03:15	15.4	15.4	15.4	78	9.8	0	2	248	0.00	30.193 
03:20	15.4	15.4	15.4	78	9.8	0	1	158	0.00	30.193 
03:25	15.4	15.4	15.4	78	9.8	0	2	248	0.00	30.193 
03:30	15.4	15.4	15.4	78	9.8	0	3	248	0.00	30.204 
03:35	15.4	15.4	15.4	78	9.8	0	3	248	0.00	30.204 
03:40	15.4	15.4	15.4	78	9.8	0	1	248	0.00	30.204 
03:45	15.4	15.4	15.4	78	9.8	0	1	248	0.00	30.203 
03:50	15.2	15.2	15.2	78	9.6	0	1	248	0.00	30.203 
03:55	15.2	15.2	15.2	79	9.9	0	2	248	0.00	30.203 
04:00	15.2	15.2	15.2	79	9.9	0	1	112	0.00	30.196 
04:05	15.2	15.2	15.2	79	9.9	0	2	112	0.00	30.196 
04:10	15.2	15.2	15.2	79	9.9	0	1	292	0.00	30.196 
04:15	15.2	15.2	15.2	79	9.9	0	1	292	0.00	30.191 
04:20	15.4	15.4	15.4	79	10.1	0	3	112	0.00	30.191 
04:25	15.4	15.4	15.4	79	10.1	0	2	112	0.00	30.191 
04:30	15.6	15.6	15.6	79	10.3	0	2	112	0.00	30.193 
04:35	15.6	15.6	15.6	79	10.3	0	3	248	0.00	30.193 
04:40	15.7	15.7	15.7	79	10.4	0	2	248	0.00	30.193 
04:45	15.7	15.7	15.7	79	10.4	0	1	248	0.00	30.202 
04:50	15.9	15.9	15.9	79	10.6	0	2	248	0.00	30.202 
04:55	15.9	15.9	15.9	78	10.3	0	1	248	0.00	30.202 
05:00	15.9	15.9	15.9	78	10.3	0	2	248	0.00	30.202 
05:05	15.9	15.9	15.9	78	10.3	0	1	248	0.00	30.202 
05:10	15.9	15.9	15.9	78	10.3	0	1	248	0.00	30.202 
05:15	15.9	15.9	15.9	78	10.3	0	1	248	0.00	30.204 
05:20	15.7	15.7	15.7	78	10.1	0	1	248	0.00	30.204 
05:25	15.7	15.7	15.7	79	10.4	0	1	248	0.00	30.204 
05:30	15.7	15.7	15.7	79	10.4	0	1	248	0.00	30.207 
05:35	15.7	15.7	15.7	79	10.4	0	1	248	0.00	30.207 
05:40	15.7	15.7	15.7	79	10.4	0	1	248	0.00	30.207 
05:45	15.7	15.7	15.7	79	10.4	0	0	---	0.00	30.209 
05:50	15.7	15.7	15.7	79	10.4	0	1	248	0.00	30.209 
05:55	15.7	15.7	15.7	79	10.4	0	1	248	0.00	30.209 
06:00	15.9	15.9	15.9	79	10.6	0	2	248	0.00	30.210 
06:05	15.9	15.9	15.9	79	10.6	0	2	248	0.00	30.210 
06:10	16.1	16.1	16.1	79	10.8	0	1	158	0.00	30.210 
06:15	16.1	16.1	16.1	79	10.8	0	3	90	0.00	30.207 
06:20	16.1	16.1	16.1	79	10.8	0	2	90	0.00	30.207 
06:25	16.2	16.2	16.2	79	10.9	0	2	90	0.00	30.207 
06:30	16.2	16.2	16.2	79	10.9	0	1	90	0.00	30.209 
06:35	16.2	16.2	16.2	79	10.9	0	1	90	0.00	30.209 
06:40	16.2	16.2	16.2	80	11.1	0	1	90	0.00	30.209 
06:45	16.4	16.4	16.4	80	11.3	0	2	90	0.00	30.218 
06:50	16.4	16.4	16.4	80	11.3	0	1	90	0.00	30.218 
06:55	16.4	16.4	16.4	80	11.3	0	1	90	0.00	30.218 
07:00	16.4	16.4	16.4	80	11.3	0	1	90	0.00	30.223 
07:05	16.4	16.4	16.4	80	11.3	0	2	90	0.00	30.223 
07:10	16.4	16.4	16.4	80	11.3	0	2	90	0.00	30.223 
07:15	16.4	16.4	16.4	80	11.3	0	1	90	0.00	30.225 
07:20	16.5	16.5	16.5	80	11.4	0	1	90	0.00	30.225 
07:25	16.5	16.5	16.5	80	11.4	0	1	90	0.00	30.225 
07:30	16.7	16.7	16.7	80	11.6	0	2	90	0.00	30.225 
07:35	16.7	16.7	16.7	80	11.6	0	1	90	0.00	30.225 
07:40	16.9	16.9	16.9	80	11.8	1	3	90	0.00	30.225 
07:45	17.2	17.2	17.2	80	12.1	1	3	112	0.00	30.221 
07:50	17.3	17.3	17.3	80	12.2	1	2	112	0.00	30.221 
07:55	17.5	17.5	17.5	79	12.1	0	2	112	0.00	30.221 
08:00	17.7	17.7	17.7	79	12.3	1	4	112	0.00	30.216 
08:05	17.8	17.8	17.8	79	12.4	0	3	112	0.00	30.216 
08:10	17.8	17.8	17.8	79	12.4	0	1	112	0.00	30.216 
08:15	18.0	18.0	18.0	79	12.6	0	2	112	0.00	30.215 
08:20	18.3	18.3	18.3	80	13.2	0	3	270	0.00	30.215 
08:25	18.4	18.4	18.4	80	13.3	0	2	68	0.00	30.215 
08:30	18.8	18.8	18.8	79	13.4	0	2	68	0.00	30.207 
08:35	18.9	18.9	18.9	79	13.5	0	2	135	0.00	30.207 
08:40	19.2	19.2	19.2	79	13.8	0	3	112	0.00	30.207 
08:45	19.5	19.5	19.5	79	14.1	1	3	112	0.00	30.208 
08:50	19.9	19.9	19.9	78	14.2	1	4	0	0.00	30.208 
08:55	20.2	20.2	20.2	78	14.5	0	3	135	0.00	30.208 
09:00	20.5	20.5	20.5	77	14.5	1	4	90	0.00	30.208 
09:05	20.6	20.6	20.6	77	14.6	1	2	90	0.00	30.208 
09:10	20.8	20.8	20.8	77	14.7	1	4	112	0.00	30.208 
09:15	21.1	21.1	21.1	77	15.0	1	3	135	0.00	30.207 
09:20	21.4	21.4	21.4	77	15.3	1	3	158	0.00	30.207 
09:25	21.6	21.6	21.6	77	15.5	1	3	90	0.00	30.207 
09:30	21.9	21.9	21.9	77	15.8	1	4	45	0.00	30.207 
09:35	22.2	22.2	22.2	78	16.4	1	5	90	0.00	30.207 
09:40	22.5	22.5	22.5	78	16.7	1	3	90	0.00	30.207 
09:45	23.0	23.0	23.0	77	16.9	1	3	90	0.00	30.204 
09:50	23.5	23.5	23.5	77	17.4	1	4	68	0.00	30.204 
09:55	23.8	23.8	23.8	77	17.7	1	4	22	0.00	30.204 
10:00	24.1	24.1	24.1	77	18.0	1	3	68	0.00	30.207 
10:05	24.4	24.4	24.4	77	18.2	1	3	90	0.00	30.207 
10:10	24.7	24.7	24.7	77	18.5	1	5	90	0.00	30.207 
10:15	25.1	25.1	25.1	77	18.9	1	4	68	0.00	30.207 
10:20	25.6	25.6	25.6	77	19.4	1	4	68	0.00	30.207 
10:25	26.0	26.0	26.0	77	19.8	1	4	338	0.00	30.207 
10:30	26.3	26.3	26.3	76	19.8	2	5	315	0.00	30.206 
10:35	26.7	26.7	26.7	76	20.2	1	4	338	0.00	30.206 
10:40	27.2	27.2	27.2	75	20.3	2	5	270	0.00	30.206 
10:45	27.5	27.5	27.5	75	20.6	1	4	0	0.00	30.189 
10:50	27.6	27.6	27.6	74	20.4	2	5	90	0.00	30.189 
10:55	27.8	27.8	27.8	74	20.6	1	5	22	0.00	30.189 
11:00	28.1	28.1	28.1	74	20.9	1	4	315	0.00	30.186 
11:05	28.4	28.4	28.4	73	20.9	2	4	90	0.00	30.186 
11:10	28.5	28.5	28.5	73	21.0	2	7	112	0.00	30.186 
11:15	28.7	28.7	28.7	72	20.8	2	5	225	0.00	30.182 
11:20	28.7	28.7	28.7	72	20.8	2	5	270	0.00	30.182 
11:25	28.8	28.8	28.8	72	20.9	1	4	292	0.00	30.182 
11:30	29.0	29.0	29.0	72	21.1	1	5	45	0.00	30.181 
11:35	29.0	29.0	29.0	72	21.1	2	6	248	0.00	30.181 
11:40	29.3	29.3	29.3	72	21.4	1	3	0	0.00	30.181 
11:45	29.4	29.4	29.4	72	21.5	1	4	68	0.00	30.169 
11:50	29.5	29.5	29.5	72	21.6	2	6	90	0.00	30.169 
11:55	29.7	29.7	29.7	71	21.5	2	6	90	0.00	30.169 
12:00	29.8	29.8	29.8	71	21.6	1	4	90	0.00	30.155 
12:05	29.8	29.8	29.8	71	21.6	2	5	45	0.00	30.155 
12:10	30.0	30.0	30.0	71	21.8	2	6	90	0.00	30.155 
12:15	30.3	30.3	30.3	71	22.0	1	5	135	0.00	30.152 
12:20	30.4	30.4	30.4	71	22.1	2	4	68	0.00	30.152 
12:25	30.6	30.6	30.6	71	22.3	1	4	68	0.00	30.152 
12:30	30.7	30.7	30.7	71	22.4	1	5	45	0.00	30.137 
12:35	30.9	30.9	30.9	71	22.6	1	3	90	0.00	30.137 
12:40	31.3	31.3	31.3	71	23.0	2	5	90	0.00	30.137 
12:45	31.8	31.8	31.8	70	23.2	2	5	68	0.00	30.127 
12:50	32.1	32.1	32.1	69	23.1	1	4	68	0.00	30.127 
12:55	32.5	32.5	32.5	69	23.5	2	6	45	0.00	30.127 
13:00	32.8	32.8	32.8	69	23.8	2	5	112	0.00	30.117 
13:05	33.1	33.1	33.1	67	23.4	3	10	90	0.00	30.117 
13:10	33.4	33.4	33.4	68	24.0	2	7	90	0.00	30.117 
13:15	33.7	33.7	33.7	67	23.9	2	9	68	0.00	30.101 
13:20	34.0	34.0	34.0	66	23.9	2	6	90	0.00	30.101 
13:25	34.1	34.1	34.1	67	24.3	2	7	90	0.00	30.101 
13:30	34.1	34.1	34.1	66	23.9	2	7	68	0.00	30.098 
13:35	34.0	34.0	34.0	67	24.2	2	5	90	0.00	30.098 
13:40	34.1	34.1	34.1	67	24.3	1	6	270	0.00	30.098 
13:45	34.1	34.1	34.1	67	24.3	2	7	90	0.00	30.100 
13:50	34.3	34.3	34.3	66	24.1	3	9	68	0.00	30.100 
13:55	34.1	34.1	34.1	66	23.9	2	7	248	0.00	30.100 
14:00	34.1	34.1	34.1	66	23.9	1	5	68	0.00	30.095 
14:05	34.3	34.3	34.3	66	24.1	2	7	90	0.00	30.095 
14:10	34.3	34.3	34.3	66	24.1	2	10	270	0.00	30.095 
14:15	34.4	34.4	34.4	67	24.6	1	4	270	0.00	30.099 
14:20	34.6	34.6	34.6	67	24.8	2	5	270	0.00	30.099 
14:25	34.4	34.4	34.4	67	24.6	1	4	270	0.00	30.099 
14:30	34.4	34.4	34.4	66	24.2	2	7	248	0.00	30.100 
14:35	34.4	34.4	34.4	66	24.2	2	8	292	0.00	30.100 
14:40	34.4	34.4	34.4	66	24.2	2	6	248	0.00	30.100 
14:45	34.4	34.4	34.4	66	24.2	2	6	90	0.00	30.083 
14:50	34.6	34.6	34.6	66	24.4	3	10	90	0.00	30.083 
14:55	34.6	34.6	34.6	67	24.8	3	7	90	0.00	30.083 
15:00	34.6	34.6	34.6	66	24.4	3	7	90	0.00	30.071 
15:05	34.7	34.7	34.7	66	24.5	2	7	90	0.00	30.071 
15:10	34.9	34.9	34.9	66	24.7	3	12	90	0.00	30.071 
15:15	34.9	34.9	34.9	65	24.3	3	7	90	0.00	30.066 
15:20	35.0	35.0	35.0	65	24.4	2	6	90	0.00	30.066 
15:25	35.2	35.2	35.2	65	24.6	3	12	112	0.00	30.066 
15:30	35.2	35.2	35.2	66	25.0	3	7	90	0.00	30.064 
15:35	35.3	35.3	35.3	66	25.1	2	7	90	0.00	30.064 
15:40	35.5	35.5	35.5	65	24.9	2	5	90	0.00	30.064 
15:45	35.6	35.6	35.6	65	25.0	3	7	90	0.00	30.066 
15:50	35.8	35.8	35.8	65	25.2	3	10	90	0.00	30.066 
15:55	35.9	35.9	35.9	64	24.9	3	13	90	0.00	30.066 
16:00	35.9	35.9	35.9	65	25.3	3	6	90	0.00	30.066 
16:05	35.9	35.9	35.9	65	25.3	2	7	90	0.00	30.066 
16:10	35.9	35.9	35.9	66	25.7	2	6	90	0.00	30.066 
16:15	35.9	35.9	35.9	65	25.3	3	10	90	0.00	30.064 
16:20	35.9	35.9	35.9	65	25.3	2	7	90	0.00	30.064 
16:25	35.9	35.9	35.9	65	25.3	2	6	135	0.00	30.064 
16:30	35.9	35.9	35.9	65	25.3	3	9	90	0.00	30.057 
16:35	35.9	35.9	35.9	65	25.3	2	7	112	0.00	30.057 
16:40	35.9	35.9	35.9	65	25.3	2	6	90	0.00	30.057 
16:45	35.9	35.9	35.9	66	25.7	2	7	248	0.00	30.082 
16:50	35.8	35.8	35.8	67	25.9	1	5	248	0.00	30.082 
16:55	35.6	35.6	35.6	68	26.1	1	6	270	0.00	30.082 
17:00	35.6	35.6	35.6	67	25.7	2	6	90	0.00	30.078 
17:05	35.6	35.6	35.6	66	25.4	3	7	90	0.00	30.078 
17:10	35.8	35.8	35.8	66	25.6	2	10	68	0.00	30.078 
17:15	35.8	35.8	35.8	67	25.9	2	6	90	0.00	30.066 
17:20	35.8	35.8	35.8	66	25.6	2	7	112	0.00	30.066 
17:25	35.8	35.8	35.8	66	25.6	1	4	112	0.00	30.066 
17:30	35.8	35.8	35.8	65	25.2	2	5	90	0.00	30.062 
17:35	35.8	35.8	35.8	65	25.2	2	5	112	0.00	30.062 
17:40	35.9	35.9	35.9	65	25.3	1	5	112	0.00	30.062 
17:45	35.9	35.9	35.9	65	25.3	2	7	90	0.00	30.060 
17:50	35.9	35.9	35.9	65	25.3	2	6	90	0.00	30.060 
17:55	35.9	35.9	35.9	65	25.3	1	3	135	0.00	30.060 
18:00	35.9	35.9	35.9	65	25.3	1	6	112	0.00	30.054 
18:05	35.9	35.9	35.9	65	25.3	2	6	90	0.00	30.054 
18:10	35.9	35.9	35.9	65	25.3	1	3	90	0.00	30.054 
18:15	35.9	35.9	35.9	65	25.3	0	3	90	0.00	30.063 
18:20	35.8	35.8	35.8	66	25.6	1	3	90	0.00	30.063 
18:25	35.8	35.8	35.8	66	25.6	1	3	90	0.00	30.063 
18:30	35.8	35.8	35.8	65	25.2	2	5	90	0.00	30.059 
18:35	35.9	35.9	35.9	65	25.3	2	7	90	0.00	30.059 
18:40	36.0	36.0	36.0	65	25.4	2	6	112	0.00	30.059 
18:45	36.0	36.0	36.0	64	25.0	2	7	90	0.00	30.049 
18:50	36.2	36.2	36.2	64	25.2	2	6	90	0.00	30.049 
18:55	36.2	36.2	36.2	64	25.2	2	5	90	0.00	30.049 
19:00	36.3	36.3	36.3	64	25.3	1	4	90	0.00	30.051 
19:05	36.2	36.2	36.2	64	25.2	1	4	0	0.00	30.051 
19:10	36.3	36.3	36.3	63	24.9	1	3	0	0.00	30.051 
19:15	36.5	36.5	36.5	63	25.1	1	7	90	0.00	30.057 
19:20	36.5	36.5	36.5	62	24.7	1	7	248	0.00	30.057 
19:25	36.6	36.6	36.6	62	24.8	2	7	90	0.00	30.057 
19:30	36.6	36.6	36.6	61	24.4	1	4	90	0.00	30.048 
19:35	36.8	36.8	36.8	60	24.2	2	7	68	0.00	30.048 
19:40	36.9	36.9	36.9	59	23.9	2	5	90	0.00	30.048 
19:45	36.9	36.9	36.9	58	23.5	2	4	68	0.00	30.046 
19:50	37.0	37.0	37.0	58	23.6	2	7	90	0.00	30.046 
19:55	37.0	37.0	37.0	58	23.6	2	6	45	0.00	30.046 
20:00	37.0	37.0	37.0	58	23.6	2	6	90	0.00	30.054 
20:05	37.0	37.0	37.0	58	23.6	2	7	112	0.00	30.054 
20:10	37.0	37.0	37.0	57	23.2	3	6	90	0.00	30.054 
20:15	37.0	37.0	37.0	57	23.2	2	4	90	0.00	30.043 
20:20	37.2	34.1	37.2	56	23.0	4	10	112	0.00	30.043 
20:25	37.2	37.2	37.2	56	23.0	2	6	315	0.00	30.043 
20:30	37.2	37.2	37.2	56	23.0	2	5	90	0.00	30.036 
20:35	37.2	37.2	37.2	56	23.0	2	7	112	0.00	30.036 
20:40	37.2	37.2	37.2	55	22.5	2	5	90	0.00	30.036 
20:45	37.2	37.2	37.2	55	22.5	2	7	112	0.00	30.029 
20:50	37.2	37.2	37.2	55	22.5	3	7	90	0.00	30.029 
20:55	37.3	34.2	37.3	54	22.2	4	9	90	0.00	30.029 
21:00	37.3	34.2	37.3	54	22.2	4	10	90	0.00	30.012 
21:05	37.3	34.2	37.3	54	22.2	4	11	90	0.00	30.012 
21:10	37.3	34.2	37.3	54	22.2	4	11	90	0.00	30.012 
21:15	37.5	33.5	37.5	53	21.9	5	13	90	0.00	29.990 
21:20	37.3	37.3	37.3	53	21.8	3	9	90	0.00	29.990 
21:25	37.5	34.4	37.5	52	21.5	4	11	90	0.00	29.990 
21:30	37.6	34.5	37.6	51	21.1	4	11	90	0.00	29.972 
21:35	37.6	37.6	37.6	51	21.1	2	9	112	0.00	29.972 
21:40	37.6	37.6	37.6	51	21.1	3	5	90	0.00	29.972 
21:45	37.6	37.6	37.6	51	21.1	3	5	112	0.00	29.993 
21:50	37.6	34.5	37.6	50	20.7	4	10	90	0.00	29.993 
21:55	37.6	37.6	37.6	50	20.7	2	7	90	0.00	29.993 
22:00	37.6	37.6	37.6	50	20.7	2	6	90	0.00	29.982 
22:05	37.6	37.6	37.6	50	20.7	3	8	90	0.00	29.982 
22:10	37.8	34.8	37.8	49	20.4	4	12	90	0.00	29.982 
22:15	37.8	37.8	37.8	49	20.4	3	6	90	0.00	29.974 
22:20	37.8	37.8	37.8	49	20.4	2	6	90	0.00	29.974 
22:25	37.8	37.8	37.8	49	20.4	3	12	112	0.00	29.974 
22:30	37.8	37.8	37.8	50	20.8	2	7	90	0.00	29.974 
22:35	37.8	37.8	37.8	51	21.3	2	8	90	0.00	29.974 
22:40	37.6	37.6	37.6	51	21.1	1	3	315	0.00	29.974 
22:45	37.5	37.5	37.5	52	21.5	1	3	248	0.00	29.994 
22:50	37.5	37.5	37.5	52	21.5	1	5	270	0.00	29.994 
22:55	37.6	37.6	37.6	52	21.6	1	4	90	0.00	29.994 
23:00	37.6	37.6	37.6	52	21.6	2	6	90	0.00	29.977 
23:05	37.6	37.6	37.6	53	22.0	1	4	90	0.00	29.977 
23:10	37.6	37.6	37.6	53	22.0	1	5	90	0.00	29.977 
23:15	37.6	37.6	37.6	53	22.0	3	9	112	0.00	29.971 
23:20	37.6	37.6	37.6	54	22.5	2	5	90	0.00	29.971 
23:25	37.6	37.6	37.6	54	22.5	3	7	112	0.00	29.971 
23:30	37.6	37.6	37.6	55	22.9	3	7	90	0.00	29.971 
23:35	37.6	37.6	37.6	55	22.9	2	10	90	0.00	29.971 
23:40	37.6	37.6	37.6	55	22.9	2	5	90	0.00	29.971 
23:45	37.8	34.8	37.8	55	23.1	4	15	90	0.00	29.963 
23:50	37.9	34.9	37.9	54	22.8	4	11	90	0.00	29.963 
23:55	38.0	38.0	38.0	54	22.9	3	8	90	0.00	29.963 

CoCoRaHS
IN-AL-39
A2 Web Hosting
Creative Commons License
GoDaddy
search engine by freefind advanced

loaded 2018-11-18 11:18:37 • last modified 2010-11-18 10:43:29
Privacy PolicyDisclaimer
• wx.awcolley.com is powered by PmWiki v.2002016 •
• all content (unless otherwise noted) © 2018 A W Colley